createdAt,value
2016-10-25T00:00:13.409Z,65.44
2016-10-25T00:01:12.418Z,65.41
2016-10-25T00:02:13.342Z,65.40
2016-10-25T00:03:12.779Z,65.43
2016-10-25T00:04:14.654Z,65.43
2016-10-25T00:05:13.236Z,65.43
2016-10-25T00:06:12.461Z,65.47
2016-10-25T00:07:10.962Z,65.43
2016-10-25T00:08:11.910Z,65.43
2016-10-25T00:09:13.526Z,65.42
2016-10-25T00:10:11.706Z,65.23
2016-10-25T00:11:13.217Z,64.36
2016-10-25T00:12:12.359Z,64.57
2016-10-25T00:13:12.310Z,65.07
2016-10-25T00:14:12.912Z,65.22
2016-10-25T00:15:12.758Z,65.27
2016-10-25T00:16:12.835Z,65.36
2016-10-25T00:17:13.595Z,65.37
2016-10-25T00:18:13.643Z,65.34
2016-10-25T00:19:12.775Z,65.39
2016-10-25T00:20:13.718Z,65.37
2016-10-25T00:21:11.754Z,65.41
2016-10-25T00:22:13.319Z,65.42
2016-10-25T00:23:12.615Z,65.40
2016-10-25T00:24:12.618Z,65.39
2016-10-25T00:25:12.607Z,65.43
2016-10-25T00:26:12.659Z,65.44
2016-10-25T00:27:13.001Z,65.47
2016-10-25T00:28:12.575Z,65.46
2016-10-25T00:29:13.955Z,65.48
2016-10-25T00:30:18.562Z,65.45
2016-10-25T00:31:13.985Z,65.56
2016-10-25T00:32:12.089Z,65.59
2016-10-25T00:33:13.081Z,65.53
2016-10-25T00:34:12.420Z,65.56
2016-10-25T00:35:13.639Z,65.57
2016-10-25T00:36:12.648Z,65.59
2016-10-25T00:37:13.297Z,65.55
2016-10-25T00:38:12.520Z,65.59
2016-10-25T00:39:18.631Z,65.63
2016-10-25T00:40:13.284Z,65.44
2016-10-25T00:41:13.149Z,64.59
2016-10-25T00:42:13.136Z,64.37
2016-10-25T00:43:19.790Z,64.63
2016-10-25T00:44:10.934Z,65.24
2016-10-25T00:45:13.007Z,65.43
2016-10-25T00:46:12.659Z,65.52
2016-10-25T00:47:13.022Z,65.58
2016-10-25T00:48:13.787Z,65.65
2016-10-25T00:49:13.473Z,65.60
2016-10-25T00:50:13.052Z,65.68
2016-10-25T00:51:12.129Z,65.67
2016-10-25T00:52:12.855Z,65.65
2016-10-25T00:53:11.270Z,65.70
2016-10-25T00:54:19.067Z,65.68
2016-10-25T00:55:13.012Z,65.71
2016-10-25T00:56:12.014Z,65.73
2016-10-25T00:57:11.994Z,65.73
2016-10-25T00:58:12.684Z,65.81
2016-10-25T00:59:11.392Z,65.75
2016-10-25T01:00:13.251Z,65.77
2016-10-25T01:01:13.451Z,65.75
2016-10-25T01:02:15.567Z,65.83
2016-10-25T01:03:15.107Z,65.85
2016-10-25T01:04:13.735Z,65.84
2016-10-25T01:05:11.805Z,66.04
2016-10-25T01:06:14.942Z,65.94
2016-10-25T01:07:12.172Z,65.89
2016-10-25T01:08:12.783Z,65.87
2016-10-25T01:09:13.738Z,65.89
2016-10-25T01:10:15.474Z,65.92
2016-10-25T01:11:14.103Z,65.88
2016-10-25T01:12:12.247Z,65.87
2016-10-25T01:13:13.755Z,66.00
2016-10-25T01:14:14.307Z,65.94
2016-10-25T01:15:13.047Z,65.89
2016-10-25T01:16:19.181Z,65.88
2016-10-25T01:17:12.469Z,65.92
2016-10-25T01:18:14.358Z,65.91
2016-10-25T01:19:12.414Z,65.89
2016-10-25T01:20:13.068Z,65.92
2016-10-25T01:21:14.222Z,65.92
2016-10-25T01:22:20.574Z,65.95
2016-10-25T01:23:12.835Z,65.91
2016-10-25T01:24:14.933Z,65.89
2016-10-25T01:25:12.619Z,65.88
2016-10-25T01:26:13.465Z,65.89
2016-10-25T01:27:13.244Z,65.94
2016-10-25T01:28:12.177Z,65.93
2016-10-25T01:29:12.191Z,66.01
2016-10-25T01:30:14.374Z,66.04
2016-10-25T01:31:12.652Z,65.96
2016-10-25T01:32:14.350Z,65.98
2016-10-25T01:33:15.083Z,65.92
2016-10-25T01:34:12.873Z,65.95
2016-10-25T01:35:18.517Z,65.93
2016-10-25T01:36:12.656Z,65.97
2016-10-25T01:37:13.228Z,65.91
2016-10-25T01:38:13.438Z,65.91
2016-10-25T01:39:13.370Z,65.91
2016-10-25T01:40:12.294Z,65.92
2016-10-25T01:41:12.870Z,65.98
2016-10-25T01:42:12.928Z,65.97
2016-10-25T01:43:18.876Z,65.93
2016-10-25T01:44:15.085Z,65.91
2016-10-25T01:45:09.548Z,66.03
2016-10-25T01:46:10.682Z,65.85
2016-10-25T01:47:13.971Z,64.96
2016-10-25T01:48:14.678Z,64.83
2016-10-25T01:49:12.879Z,64.65
2016-10-25T01:50:13.024Z,64.61
2016-10-25T01:51:20.177Z,64.57
2016-10-25T01:52:13.171Z,64.46
2016-10-25T01:53:18.468Z,64.48
2016-10-25T01:54:14.081Z,64.60
2016-10-25T01:55:12.821Z,65.45
2016-10-25T01:56:13.457Z,65.65
2016-10-25T01:57:13.266Z,65.79
2016-10-25T01:58:13.031Z,65.81
2016-10-25T01:59:12.411Z,65.85
2016-10-25T02:00:12.784Z,65.85
2016-10-25T02:01:12.866Z,65.90
2016-10-25T02:02:13.691Z,65.85
2016-10-25T02:03:15.488Z,65.91
2016-10-25T02:04:13.535Z,65.95
2016-10-25T02:05:12.677Z,65.92
2016-10-25T02:06:14.141Z,65.86
2016-10-25T02:07:12.998Z,65.97
2016-10-25T02:08:12.155Z,65.94
2016-10-25T02:09:12.250Z,65.92
2016-10-25T02:10:11.523Z,65.94
2016-10-25T02:11:13.444Z,64.91
2016-10-25T02:12:13.494Z,64.74
2016-10-25T02:13:13.599Z,64.59
2016-10-25T02:14:12.983Z,64.54
2016-10-25T02:15:13.136Z,64.48
2016-10-25T02:16:12.928Z,64.49
2016-10-25T02:17:12.141Z,64.70
2016-10-25T02:18:12.193Z,65.42
2016-10-25T02:19:13.955Z,65.64
2016-10-25T02:20:14.926Z,65.76
2016-10-25T02:21:13.096Z,65.79
2016-10-25T02:22:12.658Z,65.83
2016-10-25T02:23:14.152Z,65.85
2016-10-25T02:24:13.014Z,65.87
2016-10-25T02:25:12.839Z,65.88
2016-10-25T02:26:14.314Z,65.95
2016-10-25T02:27:17.914Z,65.95
2016-10-25T02:28:12.487Z,65.93
2016-10-25T02:29:13.959Z,65.95
2016-10-25T02:30:13.204Z,65.97
2016-10-25T02:31:13.696Z,66.00
2016-10-25T02:32:19.641Z,66.02
2016-10-25T02:33:13.584Z,65.95
2016-10-25T02:34:13.717Z,65.97
2016-10-25T02:35:13.600Z,66.03
2016-10-25T02:36:19.194Z,66.02
2016-10-25T02:37:12.342Z,66.02
2016-10-25T02:38:12.410Z,66.01
2016-10-25T02:39:16.901Z,65.88
2016-10-25T02:40:13.909Z,64.99
2016-10-25T02:41:13.258Z,64.84
2016-10-25T02:42:12.985Z,65.73
2016-10-25T02:43:11.024Z,65.93
2016-10-25T02:44:12.852Z,66.00
2016-10-25T02:45:15.472Z,66.01
2016-10-25T02:46:12.673Z,66.06
2016-10-25T02:47:14.052Z,66.08
2016-10-25T02:48:12.857Z,65.95
2016-10-25T02:49:14.209Z,65.16
2016-10-25T02:50:10.654Z,64.92
2016-10-25T02:51:12.654Z,65.85
2016-10-25T02:52:13.382Z,66.02
2016-10-25T02:53:12.922Z,66.08
2016-10-25T02:54:13.702Z,66.09
2016-10-25T02:55:13.343Z,66.14
2016-10-25T02:56:12.835Z,66.08
2016-10-25T02:57:13.470Z,66.13
2016-10-25T02:58:13.533Z,66.14
2016-10-25T02:59:13.461Z,66.14
2016-10-25T03:00:12.584Z,66.24
2016-10-25T03:01:12.666Z,66.27
2016-10-25T03:02:13.391Z,66.34
2016-10-25T03:03:13.204Z,66.32
2016-10-25T03:04:12.675Z,66.20
2016-10-25T03:05:12.814Z,66.29
2016-10-25T03:06:13.888Z,66.23
2016-10-25T03:07:11.676Z,66.21
2016-10-25T03:08:14.579Z,65.14
2016-10-25T03:09:15.061Z,64.96
2016-10-25T03:10:13.758Z,64.89
2016-10-25T03:11:12.845Z,64.79
2016-10-25T03:12:13.780Z,64.77
2016-10-25T03:13:13.938Z,64.78
2016-10-25T03:14:12.862Z,64.83
2016-10-25T03:15:13.598Z,64.87
2016-10-25T03:16:13.598Z,65.68
2016-10-25T03:17:13.475Z,65.91
2016-10-25T03:18:12.598Z,66.05
2016-10-25T03:19:13.344Z,66.10
2016-10-25T03:20:12.483Z,66.15
2016-10-25T03:21:15.766Z,66.14
2016-10-25T03:22:19.913Z,66.16
2016-10-25T03:23:14.044Z,66.22
2016-10-25T03:24:12.303Z,66.17
2016-10-25T03:25:13.498Z,66.17
2016-10-25T03:26:09.764Z,66.22
2016-10-25T03:27:14.442Z,66.22
2016-10-25T03:28:12.614Z,66.24
2016-10-25T03:29:12.835Z,66.22
2016-10-25T03:30:14.360Z,66.29
2016-10-25T03:31:12.356Z,66.24
2016-10-25T03:32:13.210Z,66.30
2016-10-25T03:33:12.332Z,66.28
2016-10-25T03:34:13.056Z,66.21
2016-10-25T03:35:12.244Z,66.23
2016-10-25T03:36:12.286Z,66.25
2016-10-25T03:37:13.021Z,66.27
2016-10-25T03:38:12.476Z,66.23
2016-10-25T03:39:13.074Z,66.23
2016-10-25T03:40:12.795Z,66.27
2016-10-25T03:41:13.640Z,66.24
2016-10-25T03:42:13.233Z,66.28
2016-10-25T03:43:10.532Z,66.28
2016-10-25T03:44:13.391Z,65.24
2016-10-25T03:45:13.204Z,65.24
2016-10-25T03:46:12.306Z,65.94
2016-10-25T03:47:12.300Z,66.13
2016-10-25T03:48:12.296Z,66.15
2016-10-25T03:49:14.013Z,66.22
2016-10-25T03:50:12.152Z,66.20
2016-10-25T03:51:13.221Z,66.24
2016-10-25T03:52:12.322Z,66.27
2016-10-25T03:53:10.683Z,66.25
2016-10-25T03:54:12.813Z,66.25
2016-10-25T03:55:13.000Z,66.27
2016-10-25T03:56:12.937Z,66.28
2016-10-25T03:57:12.346Z,66.27
2016-10-25T03:58:13.325Z,66.28
2016-10-25T03:59:13.295Z,66.26
2016-10-25T04:00:12.996Z,66.27
2016-10-25T04:01:13.276Z,66.21
2016-10-25T04:02:13.287Z,66.22
2016-10-25T04:03:13.338Z,66.23
2016-10-25T04:04:13.634Z,66.24
2016-10-25T04:05:14.089Z,66.20
2016-10-25T04:06:13.087Z,66.25
2016-10-25T04:07:14.458Z,66.30
2016-10-25T04:08:13.218Z,66.29
2016-10-25T04:09:13.475Z,66.26
2016-10-25T04:10:13.600Z,66.28
2016-10-25T04:11:13.374Z,66.24
2016-10-25T04:12:13.065Z,66.25
2016-10-25T04:13:12.700Z,66.24
2016-10-25T04:14:12.818Z,66.27
2016-10-25T04:15:12.826Z,66.29
2016-10-25T04:16:12.974Z,66.26
2016-10-25T04:17:12.281Z,66.29
2016-10-25T04:18:13.200Z,66.24
2016-10-25T04:19:12.161Z,66.26
2016-10-25T04:20:11.126Z,66.25
2016-10-25T04:21:12.092Z,66.25
2016-10-25T04:22:10.296Z,66.29
2016-10-25T04:23:13.106Z,65.22
2016-10-25T04:24:12.329Z,65.02
2016-10-25T04:25:17.136Z,64.89
2016-10-25T04:26:13.425Z,65.07
2016-10-25T04:27:12.365Z,65.84
2016-10-25T04:28:12.506Z,66.02
2016-10-25T04:29:13.520Z,66.10
2016-10-25T04:30:13.362Z,66.13
2016-10-25T04:31:12.840Z,66.21
2016-10-25T04:32:14.538Z,66.25
2016-10-25T04:33:11.346Z,66.28
2016-10-25T04:34:11.593Z,65.25
2016-10-25T04:35:13.587Z,65.00
2016-10-25T04:36:12.731Z,64.90
2016-10-25T04:37:12.843Z,64.91
2016-10-25T04:38:13.057Z,64.80
2016-10-25T04:39:14.024Z,64.82
2016-10-25T04:40:12.199Z,64.80
2016-10-25T04:41:18.031Z,65.73
2016-10-25T04:42:12.156Z,65.95
2016-10-25T04:43:13.921Z,66.16
2016-10-25T04:44:11.062Z,66.17
2016-10-25T04:45:12.157Z,66.22
2016-10-25T04:46:13.036Z,66.26
2016-10-25T04:47:12.639Z,66.23
2016-10-25T04:48:12.674Z,66.31
2016-10-25T04:49:11.790Z,66.33
2016-10-25T04:50:13.867Z,66.30
2016-10-25T04:51:12.843Z,66.35
2016-10-25T04:52:14.547Z,66.28
2016-10-25T04:53:13.035Z,66.33
2016-10-25T04:54:14.037Z,66.41
2016-10-25T04:55:12.133Z,66.41
2016-10-25T04:56:13.466Z,66.43
2016-10-25T04:57:14.316Z,66.46
2016-10-25T04:58:11.603Z,66.45
2016-10-25T04:59:12.397Z,66.48
2016-10-25T05:00:13.633Z,66.49
2016-10-25T05:01:12.645Z,66.48
2016-10-25T05:02:12.738Z,66.59
2016-10-25T05:03:11.687Z,66.54
2016-10-25T05:04:12.639Z,66.53
2016-10-25T05:05:12.646Z,66.49
2016-10-25T05:06:13.485Z,66.49
2016-10-25T05:07:13.205Z,66.50
2016-10-25T05:08:12.324Z,66.51
2016-10-25T05:09:13.096Z,66.48
2016-10-25T05:10:12.918Z,66.50
2016-10-25T05:11:13.001Z,66.49
2016-10-25T05:12:13.354Z,66.51
2016-10-25T05:13:12.240Z,66.49
2016-10-25T05:14:13.965Z,66.52
2016-10-25T05:15:13.212Z,66.47
2016-10-25T05:16:12.224Z,66.54
2016-10-25T05:17:12.912Z,66.53
2016-10-25T05:18:16.511Z,66.52
2016-10-25T05:19:12.657Z,66.50
2016-10-25T05:20:12.693Z,66.55
2016-10-25T05:21:15.477Z,66.57
2016-10-25T05:22:18.816Z,66.51
2016-10-25T05:23:12.847Z,66.55
2016-10-25T05:24:13.008Z,66.54
2016-10-25T05:25:12.991Z,66.56
2016-10-25T05:26:12.062Z,66.54
2016-10-25T05:27:12.941Z,66.56
2016-10-25T05:28:12.015Z,66.52
2016-10-25T05:29:13.873Z,66.51
2016-10-25T05:30:13.014Z,66.51
2016-10-25T05:31:09.402Z,66.56
2016-10-25T05:32:12.982Z,66.55
2016-10-25T05:33:12.821Z,66.50
2016-10-25T05:34:13.577Z,66.49
2016-10-25T05:35:10.863Z,66.71
2016-10-25T05:36:11.996Z,66.53
2016-10-25T05:37:13.722Z,66.56
2016-10-25T05:38:14.406Z,66.52
2016-10-25T05:39:13.397Z,66.56
2016-10-25T05:40:10.889Z,66.54
2016-10-25T05:41:12.829Z,66.54
2016-10-25T05:42:12.888Z,66.53
2016-10-25T05:43:13.865Z,66.51
2016-10-25T05:44:13.068Z,66.62
2016-10-25T05:45:12.291Z,66.61
2016-10-25T05:46:14.071Z,66.56
2016-10-25T05:47:12.908Z,66.65
2016-10-25T05:48:12.487Z,66.63
2016-10-25T05:49:13.457Z,66.54
2016-10-25T05:50:11.599Z,66.52
2016-10-25T05:51:13.014Z,65.58
2016-10-25T05:52:12.200Z,65.45
2016-10-25T05:53:13.947Z,65.25
2016-10-25T05:54:12.047Z,65.19
2016-10-25T05:55:13.259Z,65.29
2016-10-25T05:56:12.246Z,65.30
2016-10-25T05:57:13.816Z,65.17
2016-10-25T05:58:13.428Z,65.10
2016-10-25T05:59:12.396Z,65.11
2016-10-25T06:00:13.195Z,65.42
2016-10-25T06:01:12.343Z,66.09
2016-10-25T06:02:13.647Z,66.29
2016-10-25T06:03:13.299Z,66.42
2016-10-25T06:04:12.306Z,66.41
2016-10-25T06:05:12.392Z,66.45
2016-10-25T06:06:12.627Z,66.49
2016-10-25T06:07:14.587Z,66.54
2016-10-25T06:08:11.529Z,66.51
2016-10-25T06:09:13.227Z,66.54
2016-10-25T06:10:13.853Z,66.53
2016-10-25T06:11:13.585Z,66.53
2016-10-25T06:12:13.352Z,66.59
2016-10-25T06:13:12.948Z,66.38
2016-10-25T06:14:12.814Z,66.55
2016-10-25T06:15:12.990Z,66.55
2016-10-25T06:16:12.314Z,66.54
2016-10-25T06:17:13.468Z,66.57
2016-10-25T06:18:13.347Z,66.55
2016-10-25T06:19:10.551Z,66.58
2016-10-25T06:20:13.175Z,65.55
2016-10-25T06:21:12.298Z,65.31
2016-10-25T06:22:13.601Z,65.25
2016-10-25T06:23:13.683Z,65.20
2016-10-25T06:24:13.729Z,65.11
2016-10-25T06:25:11.875Z,65.19
2016-10-25T06:26:13.906Z,64.73
2016-10-25T06:27:14.676Z,64.98
2016-10-25T06:28:13.623Z,65.31
2016-10-25T06:29:13.113Z,66.07
2016-10-25T06:30:11.052Z,66.30
2016-10-25T06:31:12.099Z,66.42
2016-10-25T06:32:13.191Z,66.48
2016-10-25T06:33:12.280Z,66.47
2016-10-25T06:34:12.986Z,66.59
2016-10-25T06:35:12.681Z,66.68
2016-10-25T06:36:16.010Z,66.71
2016-10-25T06:37:12.659Z,66.74
2016-10-25T06:38:12.664Z,66.70
2016-10-25T06:39:12.645Z,66.78
2016-10-25T06:40:11.663Z,66.83
2016-10-25T06:41:12.646Z,66.77
2016-10-25T06:42:13.345Z,66.83
2016-10-25T06:43:13.984Z,66.78
2016-10-25T06:44:12.108Z,66.86
2016-10-25T06:45:12.057Z,66.83
2016-10-25T06:46:12.653Z,66.79
2016-10-25T06:47:12.750Z,66.84
2016-10-25T06:48:12.682Z,66.79
2016-10-25T06:49:12.804Z,66.85
2016-10-25T06:50:13.584Z,66.83
2016-10-25T06:51:12.425Z,66.84
2016-10-25T06:52:12.417Z,66.85
2016-10-25T06:53:12.573Z,66.83
2016-10-25T06:54:12.849Z,66.86
2016-10-25T06:55:13.678Z,66.84
2016-10-25T06:56:13.265Z,67.01
2016-10-25T06:57:12.222Z,66.53
2016-10-25T06:58:12.917Z,66.36
2016-10-25T06:59:12.974Z,67.01
2016-10-25T07:00:12.830Z,66.85
2016-10-25T07:01:13.537Z,66.67
2016-10-25T07:02:11.274Z,67.21
2016-10-25T07:03:12.930Z,67.24
2016-10-25T07:04:11.972Z,67.67
2016-10-25T07:05:12.753Z,67.53
2016-10-25T07:06:12.930Z,67.60
2016-10-25T07:07:12.146Z,67.18
2016-10-25T07:08:12.202Z,67.17
2016-10-25T07:09:12.257Z,66.92
2016-10-25T07:10:13.404Z,66.76
2016-10-25T07:11:12.331Z,66.58
2016-10-25T07:12:12.370Z,66.53
2016-10-25T07:13:13.195Z,66.74
2016-10-25T07:14:12.960Z,66.16
2016-10-25T07:15:12.661Z,65.81
2016-10-25T07:16:13.345Z,65.76
2016-10-25T07:17:13.284Z,66.28
2016-10-25T07:18:13.120Z,66.04
2016-10-25T07:19:12.123Z,65.99
2016-10-25T07:20:12.884Z,66.46
2016-10-25T07:21:13.561Z,66.27
2016-10-25T07:22:13.292Z,66.05
2016-10-25T07:23:11.141Z,66.87
2016-10-25T07:24:12.659Z,66.09
2016-10-25T07:25:12.579Z,66.64
2016-10-25T07:26:12.612Z,66.63
2016-10-25T07:27:13.429Z,66.99
2016-10-25T07:28:13.331Z,67.08
2016-10-25T07:29:12.357Z,66.70
2016-10-25T07:30:13.093Z,66.21
2016-10-25T07:31:12.715Z,66.09
2016-10-25T07:32:14.200Z,66.03
2016-10-25T07:33:11.025Z,66.13
2016-10-25T07:34:11.190Z,65.27
2016-10-25T07:35:12.449Z,65.15
2016-10-25T07:36:13.259Z,64.08
2016-10-25T07:37:13.267Z,64.84
2016-10-25T07:38:12.390Z,65.11
2016-10-25T07:39:14.277Z,65.30
2016-10-25T07:40:13.187Z,65.24
2016-10-25T07:41:11.927Z,66.69
2016-10-25T07:42:13.813Z,66.63
2016-10-25T07:43:12.942Z,66.60
2016-10-25T07:44:18.039Z,66.47
2016-10-25T07:45:13.923Z,66.36
2016-10-25T07:46:12.654Z,66.50
2016-10-25T07:47:12.753Z,66.67
2016-10-25T07:48:11.622Z,66.09
2016-10-25T07:49:12.831Z,65.65
2016-10-25T07:50:13.637Z,65.73
2016-10-25T07:51:13.615Z,65.87
2016-10-25T07:52:13.242Z,65.52
2016-10-25T07:53:12.381Z,66.23
2016-10-25T07:54:12.603Z,66.69
2016-10-25T07:55:13.191Z,66.52
2016-10-25T07:56:13.025Z,66.67
2016-10-25T07:57:12.429Z,66.74
2016-10-25T07:58:12.297Z,66.85
2016-10-25T07:59:19.553Z,67.04
2016-10-25T08:00:12.672Z,66.77
2016-10-25T08:01:12.837Z,67.08
2016-10-25T08:02:12.890Z,67.24
2016-10-25T08:03:13.049Z,67.19
2016-10-25T08:04:12.008Z,66.89
2016-10-25T08:05:13.676Z,66.88
2016-10-25T08:06:13.373Z,66.82
2016-10-25T08:07:12.239Z,66.91
2016-10-25T08:08:12.882Z,66.85
2016-10-25T08:09:13.457Z,67.07
2016-10-25T08:10:12.418Z,66.84
2016-10-25T08:11:13.281Z,66.90
2016-10-25T08:12:12.608Z,67.42
2016-10-25T08:13:13.217Z,66.87
2016-10-25T08:14:12.850Z,66.73
2016-10-25T08:15:11.783Z,66.77
2016-10-25T08:16:12.892Z,65.92
2016-10-25T08:17:13.173Z,66.84
2016-10-25T08:18:13.139Z,66.91
2016-10-25T08:19:12.191Z,66.98
2016-10-25T08:20:13.069Z,66.97
2016-10-25T08:21:12.660Z,66.80
2016-10-25T08:22:11.485Z,66.89
2016-10-25T08:23:13.429Z,66.76
2016-10-25T08:24:11.376Z,67.27
2016-10-25T08:25:13.766Z,66.30
2016-10-25T08:26:13.527Z,66.46
2016-10-25T08:27:12.456Z,67.07
2016-10-25T08:28:12.880Z,67.21
2016-10-25T08:29:13.057Z,67.39
2016-10-25T08:30:12.909Z,67.37
2016-10-25T08:31:13.154Z,67.53
2016-10-25T08:32:12.825Z,66.58
2016-10-25T08:33:11.590Z,67.54
2016-10-25T08:34:12.818Z,65.39
2016-10-25T08:35:13.655Z,65.97
2016-10-25T08:36:14.155Z,65.50
2016-10-25T08:37:13.516Z,64.13
2016-10-25T08:38:13.141Z,64.87
2016-10-25T08:39:14.235Z,65.76
2016-10-25T08:40:12.289Z,65.87
2016-10-25T08:41:12.890Z,66.66
2016-10-25T08:42:13.493Z,66.94
2016-10-25T08:43:13.172Z,66.46
2016-10-25T08:44:13.085Z,66.80
2016-10-25T08:45:12.188Z,66.81
2016-10-25T08:46:12.830Z,66.76
2016-10-25T08:47:12.801Z,66.61
2016-10-25T08:48:13.843Z,66.80
2016-10-25T08:49:13.533Z,66.80
2016-10-25T08:50:14.552Z,66.79
2016-10-25T08:51:13.379Z,66.71
2016-10-25T08:52:10.450Z,66.62
2016-10-25T08:53:11.750Z,65.56
2016-10-25T08:54:13.438Z,65.32
2016-10-25T08:55:11.589Z,65.16
2016-10-25T08:56:13.501Z,66.14
2016-10-25T08:57:13.160Z,66.39
2016-10-25T08:58:11.221Z,66.52
2016-10-25T08:59:13.111Z,66.48
2016-10-25T09:00:11.038Z,66.43
2016-10-25T09:01:11.995Z,66.42
2016-10-25T09:02:12.771Z,66.55
2016-10-25T09:03:12.785Z,66.39
2016-10-25T09:04:12.727Z,66.80
2016-10-25T09:05:18.987Z,66.48
2016-10-25T09:06:11.134Z,66.50
2016-10-25T09:07:12.164Z,66.59
2016-10-25T09:08:12.288Z,66.69
2016-10-25T09:09:12.642Z,66.59
2016-10-25T09:10:12.669Z,66.34
2016-10-25T09:11:13.466Z,66.48
2016-10-25T09:12:18.542Z,66.63
2016-10-25T09:13:19.039Z,66.65
2016-10-25T09:14:12.997Z,66.53
2016-10-25T09:15:12.860Z,66.37
2016-10-25T09:16:14.617Z,66.38
2016-10-25T09:17:13.456Z,66.26
2016-10-25T09:18:12.494Z,66.51
2016-10-25T09:19:11.749Z,66.32
2016-10-25T09:20:12.400Z,66.43
2016-10-25T09:21:12.392Z,66.43
2016-10-25T09:22:12.482Z,66.35
2016-10-25T09:23:11.464Z,66.46
2016-10-25T09:24:12.503Z,66.27
2016-10-25T09:25:11.249Z,66.31
2016-10-25T09:26:12.382Z,65.30
2016-10-25T09:27:12.613Z,65.01
2016-10-25T09:28:12.591Z,65.10
2016-10-25T09:29:12.726Z,64.91
2016-10-25T09:30:12.849Z,64.81
2016-10-25T09:31:13.997Z,64.64
2016-10-25T09:32:12.434Z,64.84
2016-10-25T09:33:12.863Z,64.79
2016-10-25T09:34:10.366Z,64.80
2016-10-25T09:35:15.275Z,64.89
2016-10-25T09:36:19.664Z,64.67
2016-10-25T09:37:13.803Z,64.68
2016-10-25T09:38:15.177Z,65.00
2016-10-25T09:39:12.903Z,64.63
2016-10-25T09:40:13.433Z,65.04
2016-10-25T09:41:12.673Z,65.60
2016-10-25T09:42:11.729Z,65.95
2016-10-25T09:43:13.087Z,64.92
2016-10-25T09:44:14.008Z,64.85
2016-10-25T09:45:12.016Z,65.01
2016-10-25T09:46:12.537Z,64.78
2016-10-25T09:47:13.045Z,65.98
2016-10-25T09:48:12.199Z,66.11
2016-10-25T09:49:12.999Z,66.18
2016-10-25T09:50:11.362Z,66.16
2016-10-25T09:51:12.812Z,66.05
2016-10-25T09:52:13.447Z,66.18
2016-10-25T09:53:18.566Z,66.07
2016-10-25T09:54:13.218Z,66.08
2016-10-25T09:55:12.810Z,66.08
2016-10-25T09:56:22.801Z,66.44
2016-10-25T09:57:12.842Z,66.06
2016-10-25T09:58:13.521Z,66.25
2016-10-25T09:59:13.999Z,66.40
2016-10-25T10:00:12.980Z,66.10
2016-10-25T10:01:12.010Z,65.58
2016-10-25T10:02:13.021Z,65.09
2016-10-25T10:03:12.094Z,65.16
2016-10-25T10:04:12.279Z,64.79
2016-10-25T10:05:12.189Z,64.71
2016-10-25T10:06:12.100Z,64.72
2016-10-25T10:07:12.082Z,64.62
2016-10-25T10:08:12.888Z,64.75
2016-10-25T10:09:13.494Z,64.55
2016-10-25T10:10:13.431Z,65.71
2016-10-25T10:11:14.010Z,65.77
2016-10-25T10:12:12.250Z,65.86
2016-10-25T10:13:12.849Z,66.03
2016-10-25T10:14:13.056Z,65.88
2016-10-25T10:15:12.109Z,65.92
2016-10-25T10:16:10.992Z,66.10
2016-10-25T10:17:19.510Z,65.13
2016-10-25T10:18:12.664Z,66.03
2016-10-25T10:19:14.152Z,66.36
2016-10-25T10:20:10.410Z,66.35
2016-10-25T10:21:13.225Z,66.09
2016-10-25T10:22:13.058Z,66.06
2016-10-25T10:23:12.450Z,66.27
2016-10-25T10:24:13.439Z,66.12
2016-10-25T10:25:12.400Z,66.18
2016-10-25T10:26:12.543Z,66.14
2016-10-25T10:27:12.410Z,66.04
2016-10-25T10:28:13.075Z,65.91
2016-10-25T10:29:17.449Z,66.02
2016-10-25T10:30:13.295Z,65.93
2016-10-25T10:31:10.623Z,65.98
2016-10-25T10:32:13.269Z,65.93
2016-10-25T10:33:12.758Z,65.70
2016-10-25T10:34:13.450Z,65.66
2016-10-25T10:35:14.226Z,65.87
2016-10-25T10:36:13.796Z,65.93
2016-10-25T10:37:14.780Z,65.84
2016-10-25T10:38:12.982Z,65.86
2016-10-25T10:39:13.372Z,65.87
2016-10-25T10:40:12.661Z,65.86
2016-10-25T10:41:13.320Z,65.86
2016-10-25T10:42:12.932Z,65.81
2016-10-25T10:43:13.748Z,65.83
2016-10-25T10:44:13.427Z,65.86
2016-10-25T10:45:13.156Z,65.91
2016-10-25T10:46:14.019Z,65.88
2016-10-25T10:47:14.691Z,65.92
2016-10-25T10:48:14.067Z,65.89
2016-10-25T10:49:14.061Z,65.91
2016-10-25T10:50:14.176Z,65.89
2016-10-25T10:51:12.899Z,65.87
2016-10-25T10:52:11.927Z,65.87
2016-10-25T10:53:12.283Z,65.71
2016-10-25T10:54:12.195Z,64.78
2016-10-25T10:55:18.955Z,64.57
2016-10-25T10:56:12.855Z,64.79
2016-10-25T10:57:11.404Z,65.41
2016-10-25T10:58:12.242Z,65.57
2016-10-25T10:59:12.284Z,65.66
2016-10-25T11:00:11.073Z,65.69
2016-10-25T11:01:12.887Z,65.66
2016-10-25T11:02:12.868Z,65.71
2016-10-25T11:03:13.620Z,65.69
2016-10-25T11:04:12.778Z,65.73
2016-10-25T11:05:12.859Z,65.66
2016-10-25T11:06:13.472Z,65.68
2016-10-25T11:07:12.665Z,65.69
2016-10-25T11:08:11.787Z,65.71
2016-10-25T11:09:13.934Z,65.68
2016-10-25T11:10:12.880Z,65.70
2016-10-25T11:11:13.339Z,65.70
2016-10-25T11:12:13.958Z,65.66
2016-10-25T11:13:13.712Z,65.67
2016-10-25T11:14:13.488Z,65.69
2016-10-25T11:15:12.737Z,65.69
2016-10-25T11:16:13.482Z,65.68
2016-10-25T11:17:13.440Z,65.66
2016-10-25T11:18:13.640Z,65.67
2016-10-25T11:19:12.900Z,65.66
2016-10-25T11:20:13.422Z,65.64
2016-10-25T11:21:13.501Z,65.66
2016-10-25T11:22:09.933Z,65.61
2016-10-25T11:23:13.384Z,65.61
2016-10-25T11:24:12.563Z,65.65
2016-10-25T11:25:13.465Z,65.66
2016-10-25T11:26:19.631Z,65.67
2016-10-25T11:27:11.334Z,65.63
2016-10-25T11:28:12.321Z,65.68
2016-10-25T11:29:13.248Z,65.62
2016-10-25T11:30:12.337Z,65.71
2016-10-25T11:31:13.599Z,65.63
2016-10-25T11:32:14.031Z,65.63
2016-10-25T11:33:12.189Z,65.65
2016-10-25T11:34:17.704Z,64.63
2016-10-25T11:35:17.440Z,64.40
2016-10-25T11:36:15.012Z,64.30
2016-10-25T11:37:12.193Z,65.25
2016-10-25T11:38:11.219Z,65.42
2016-10-25T11:39:16.295Z,65.51
2016-10-25T11:40:10.840Z,65.57
2016-10-25T11:41:16.290Z,65.56
2016-10-25T11:42:15.301Z,65.59
2016-10-25T11:43:16.363Z,65.61
2016-10-25T11:44:14.077Z,65.62
2016-10-25T11:45:12.639Z,65.59
2016-10-25T11:46:12.837Z,65.62
2016-10-25T11:47:14.713Z,65.64
2016-10-25T11:48:10.889Z,65.61
2016-10-25T11:49:12.426Z,65.64
2016-10-25T11:50:13.143Z,65.67
2016-10-25T11:51:12.363Z,65.64
2016-10-25T11:52:16.041Z,65.63
2016-10-25T11:53:13.228Z,65.65
2016-10-25T11:54:12.299Z,65.68
2016-10-25T11:55:12.377Z,65.62
2016-10-25T11:56:12.652Z,65.62
2016-10-25T11:57:13.223Z,65.62
2016-10-25T11:58:11.520Z,65.49
2016-10-25T11:59:13.272Z,65.65
2016-10-25T12:00:13.197Z,65.63
2016-10-25T12:01:13.061Z,65.63
2016-10-25T12:02:15.445Z,65.63
2016-10-25T12:03:13.233Z,65.65
2016-10-25T12:04:14.020Z,65.66
2016-10-25T12:05:14.543Z,65.59
2016-10-25T12:06:14.625Z,65.64
2016-10-25T12:07:12.692Z,65.67
2016-10-25T12:08:13.472Z,65.66
2016-10-25T12:09:18.680Z,65.76
2016-10-25T12:10:13.701Z,65.72
2016-10-25T12:11:13.468Z,65.71
2016-10-25T12:12:16.075Z,65.72
2016-10-25T12:13:16.567Z,65.73
2016-10-25T12:14:13.583Z,65.70
2016-10-25T12:15:13.288Z,65.73
2016-10-25T12:16:12.792Z,65.68
2016-10-25T12:17:13.913Z,65.80
2016-10-25T12:18:10.553Z,65.77
2016-10-25T12:19:12.390Z,65.87
2016-10-25T12:20:19.125Z,66.00
2016-10-25T12:21:12.164Z,65.95
2016-10-25T12:22:11.322Z,66.05
2016-10-25T12:23:13.773Z,65.77
2016-10-25T12:24:14.448Z,65.86
2016-10-25T12:25:12.925Z,65.93
2016-10-25T12:26:12.082Z,65.93
2016-10-25T12:27:13.706Z,66.03
2016-10-25T12:28:12.728Z,65.94
2016-10-25T12:29:13.047Z,65.93
2016-10-25T12:30:12.256Z,65.98
2016-10-25T12:31:12.954Z,65.87
2016-10-25T12:32:10.987Z,65.95
2016-10-25T12:33:14.254Z,65.05
2016-10-25T12:34:13.071Z,64.69
2016-10-25T12:35:12.845Z,64.49
2016-10-25T12:36:11.535Z,64.43
2016-10-25T12:37:13.210Z,64.43
2016-10-25T12:38:12.925Z,65.31
2016-10-25T12:39:12.174Z,65.57
2016-10-25T12:40:11.413Z,65.61
2016-10-25T12:41:13.062Z,64.69
2016-10-25T12:42:12.500Z,64.48
2016-10-25T12:43:13.216Z,64.36
2016-10-25T12:44:12.814Z,64.29
2016-10-25T12:45:12.902Z,64.24
2016-10-25T12:46:14.666Z,64.24
2016-10-25T12:47:12.800Z,65.17
2016-10-25T12:48:12.716Z,65.35
2016-10-25T12:49:12.892Z,65.48
2016-10-25T12:50:14.506Z,65.48
2016-10-25T12:51:13.267Z,65.53
2016-10-25T12:52:12.469Z,65.51